Aviation Digital Data Service (ADDS)

Output produced by METARs form (1004 UTC 25 July 2016)
found at http://aviationweather.gov/adds/metars/
 
KPBG 250536Z 2506/2606 00000KT P6SM BKN150 
     FM251400 14007KT P6SM BKN150 
     FM252000 17007KT P6SM VCSH BKN050 
     FM260300 20005KT P6SM BKN080